Time;durP1;ratioP1;P1;durP2;ratioP2;P2;SDS_P1;SDS_P2;PMS_P1;PMS_P2;Temp;Humidity;BMP_temperature;BMP_pressure;BME280_temperature;BME280_humidity;BME280_pressure;Samples;Min_cycle;Max_cycle;Signal;HPM_P1;HPM_P2
2022/07/08 00:01:27;;;;;;;;;;;17.90;99.90;;;;;;5074319;28;19904;-77
2022/07/08 00:03:53;;;;;;;;;;;17.90;99.90;;;;;;5074797;28;19912;-76
2022/07/08 00:06:18;;;;;;;;;;;17.80;99.90;;;;;;5073854;28;19958;-77
2022/07/08 00:08:44;;;;;;;;;;;17.80;99.90;;;;;;5074037;28;19904;-76
2022/07/08 00:11:10;;;;;;;;;;;17.80;99.90;;;;;;5075100;28;19927;-76
2022/07/08 00:13:36;;;;;;;;;;;17.70;99.90;;;;;;5074087;28;19958;-76
2022/07/08 00:16:02;;;;;;;;;;;17.70;99.90;;;;;;5074578;28;19909;-76
2022/07/08 00:18:27;;;;;;;;;;;17.70;99.90;;;;;;5073891;28;20045;-76
2022/07/08 00:20:53;;;;;;;;;;;17.70;99.90;;;;;;5074757;28;20049;-76
2022/07/08 00:23:19;;;;;;;;;;;17.60;99.90;;;;;;5072225;28;20364;-76
2022/07/08 00:25:44;;;;;;;;;;;17.60;99.90;;;;;;5074303;28;19904;-76
2022/07/08 00:28:10;;;;;;;;;;;17.60;99.90;;;;;;5074619;28;20347;-76
2022/07/08 00:30:35;;;;;;;;;;;17.60;99.90;;;;;;5073677;28;20275;-76
2022/07/08 00:33:01;;;;;;;;;;;17.50;99.90;;;;;;5074237;28;19939;-76
2022/07/08 00:35:27;;;;;;;;;;;17.50;99.90;;;;;;5073549;28;19909;-76
2022/07/08 00:37:53;;;;;;;;;;;17.40;99.90;;;;;;5074156;28;19916;-76
2022/07/08 00:40:19;;;;;;;;;;;17.30;99.90;;;;;;5073481;28;19967;-76
2022/07/08 00:42:48;;;;;;;;;;;17.30;99.90;;;;;;5074022;28;19916;-76
2022/07/08 00:45:16;;;;;;;;;;;17.30;99.90;;;;;;5073645;28;19954;-76
2022/07/08 00:47:42;;;;;;;;;;;17.20;99.90;;;;;;5074385;28;19911;-76
2022/07/08 00:50:09;;;;;;;;;;;17.10;99.90;;;;;;5074184;28;19954;-76
2022/07/08 00:52:35;;;;;;;;;;;17.10;99.90;;;;;;5073443;28;20677;-75
2022/07/08 00:55:02;;;;;;;;;;;17.10;99.90;;;;;;5074534;28;19912;-75
2022/07/08 00:57:27;;;;;;;;;;;17.00;99.90;;;;;;5055816;28;19958;-75
2022/07/08 00:59:54;;;;;;;;;;;17.00;99.90;;;;;;5074092;28;19904;-75
2022/07/08 01:02:19;;;;;;;;;;;16.90;99.90;;;;;;5055801;28;19991;-75
2022/07/08 01:04:45;;;;;;;;;;;16.90;99.90;;;;;;5073962;28;19939;-75
2022/07/08 01:07:11;;;;;;;;;;;16.90;99.90;;;;;;5073843;28;19952;-75
2022/07/08 01:09:36;;;;;;;;;;;16.80;99.90;;;;;;5073366;28;19904;-75
2022/07/08 01:12:03;;;;;;;;;;;16.80;99.90;;;;;;5074182;28;19904;-75
2022/07/08 01:14:29;;;;;;;;;;;16.80;99.90;;;;;;5073305;28;19908;-75
2022/07/08 01:16:54;;;;;;;;;;;16.70;99.90;;;;;;5073869;28;19908;-75
2022/07/08 01:19:20;;;;;;;;;;;16.70;99.90;;;;;;5073402;28;19904;-75
2022/07/08 01:21:46;;;;;;;;;;;16.70;99.90;;;;;;5073932;28;20248;-75
2022/07/08 01:24:11;;;;;;;;;;;16.70;99.90;;;;;;5074029;28;19909;-75
2022/07/08 01:26:37;;;;;;;;;;;16.60;99.90;;;;;;5073588;28;19909;-75
2022/07/08 01:29:03;;;;;;;;;;;16.60;99.90;;;;;;5073938;28;19905;-75
2022/07/08 01:31:28;;;;;;;;;;;16.60;99.90;;;;;;5073251;28;20286;-75
2022/07/08 01:33:54;;;;;;;;;;;16.60;99.90;;;;;;5073439;28;19904;-75
2022/07/08 01:36:19;;;;;;;;;;;16.50;99.90;;;;;;5072984;28;19931;-75
2022/07/08 01:38:45;;;;;;;;;;;16.60;99.90;;;;;;5073679;28;19908;-76
2022/07/08 01:41:10;;;;;;;;;;;16.50;99.90;;;;;;5073548;28;20345;-75
2022/07/08 01:43:36;;;;;;;;;;;16.50;99.90;;;;;;5073074;28;19923;-75
2022/07/08 01:46:02;;;;;;;;;;;16.50;99.90;;;;;;5073102;28;20346;-75
2022/07/08 01:48:27;;;;;;;;;;;16.50;99.90;;;;;;5072583;28;19987;-75
2022/07/08 01:50:53;;;;;;;;;;;16.50;99.90;;;;;;5073402;28;19904;-75
2022/07/08 01:53:18;;;;;;;;;;;16.50;99.90;;;;;;5072719;28;19912;-75
2022/07/08 01:55:45;;;;;;;;;;;16.40;99.90;;;;;;5073053;28;20366;-75
2022/07/08 01:58:11;;;;;;;;;;;16.40;99.90;;;;;;5073313;28;19935;-75
2022/07/08 02:00:37;;;;;;;;;;;16.40;99.90;;;;;;5072694;28;20359;-75
2022/07/08 02:03:02;;;;;;;;;;;16.40;99.90;;;;;;5073248;28;19905;-75
2022/07/08 02:05:28;;;;;;;;;;;16.30;99.90;;;;;;5072455;28;19904;-75
2022/07/08 02:07:54;;;;;;;;;;;16.30;99.90;;;;;;5072810;28;20256;-74
2022/07/08 02:10:19;;;;;;;;;;;16.20;99.90;;;;;;5072689;28;19911;-75
2022/07/08 02:12:45;;;;;;;;;;;16.20;99.90;;;;;;5073148;28;19951;-75
2022/07/08 02:15:10;;;;;;;;;;;16.30;99.90;;;;;;5072837;28;19912;-75
2022/07/08 02:17:37;;;;;;;;;;;16.30;99.90;;;;;;5072386;28;19915;-75
2022/07/08 02:20:04;;;;;;;;;;;16.40;99.90;;;;;;5072891;28;19909;-75
2022/07/08 02:22:29;;;;;;;;;;;16.40;99.90;;;;;;5072303;28;19964;-74
2022/07/08 02:24:55;;;;;;;;;;;16.50;99.90;;;;;;5072606;28;19995;-74
2022/07/08 02:27:21;;;;;;;;;;;16.50;99.90;;;;;;5054289;28;19916;-75
2022/07/08 02:29:46;;;;;;;;;;;16.50;99.90;;;;;;5072496;28;19912;-75
2022/07/08 02:32:13;;;;;;;;;;;16.60;99.90;;;;;;5072222;28;19904;-75
2022/07/08 02:34:38;;;;;;;;;;;16.60;99.90;;;;;;5071804;28;19927;-75
2022/07/08 02:37:04;;;;;;;;;;;16.70;99.90;;;;;;5072612;28;19908;-75
2022/07/08 02:39:29;;;;;;;;;;;16.70;99.90;;;;;;5071570;28;20398;-75
2022/07/08 02:41:55;;;;;;;;;;;16.70;99.90;;;;;;5071945;28;19916;-75
2022/07/08 02:44:21;;;;;;;;;;;16.60;99.90;;;;;;5072335;28;20338;-75
2022/07/08 02:46:46;;;;;;;;;;;16.70;99.90;;;;;;5071190;28;19908;-75
2022/07/08 02:49:12;;;;;;;;;;;16.70;99.90;;;;;;5072505;28;19905;-75
2022/07/08 02:51:38;;;;;;;;;;;16.70;99.90;;;;;;5072021;28;19905;-75
2022/07/08 02:54:04;;;;;;;;;;;16.60;99.90;;;;;;5072591;28;19958;-75
2022/07/08 02:56:31;;;;;;;;;;;16.60;99.90;;;;;;5071893;28;19912;-75
2022/07/08 02:58:56;;;;;;;;;;;16.50;99.90;;;;;;5072269;28;20409;-75
2022/07/08 03:01:22;;;;;;;;;;;16.50;99.90;;;;;;5054101;28;19904;-75
2022/07/08 03:03:48;;;;;;;;;;;16.50;99.90;;;;;;5072193;28;20425;-75
2022/07/08 03:06:13;;;;;;;;;;;16.50;99.90;;;;;;5072412;28;19904;-75
2022/07/08 03:08:39;;;;;;;;;;;16.50;99.90;;;;;;5071770;28;20010;-75
2022/07/08 03:11:05;;;;;;;;;;;16.50;99.90;;;;;;5072180;28;20283;-74
2022/07/08 03:13:31;;;;;;;;;;;16.50;99.90;;;;;;5053697;28;19909;-74
2022/07/08 03:15:57;;;;;;;;;;;16.40;99.90;;;;;;5072267;28;20298;-75
2022/07/08 03:18:22;;;;;;;;;;;16.40;99.90;;;;;;5072238;28;19908;-75
2022/07/08 03:20:48;;;;;;;;;;;16.50;99.90;;;;;;5072100;28;20007;-75
2022/07/08 03:23:13;;;;;;;;;;;16.50;99.90;;;;;;5072366;28;20355;-75
2022/07/08 03:25:39;;;;;;;;;;;16.40;99.90;;;;;;5071532;28;19911;-75
2022/07/08 03:28:04;;;;;;;;;;;16.30;99.90;;;;;;5072129;28;19941;-75
2022/07/08 03:30:30;;;;;;;;;;;16.30;99.90;;;;;;5071658;28;19965;-74
2022/07/08 03:32:56;;;;;;;;;;;16.30;99.90;;;;;;5072014;28;19908;-74
2022/07/08 03:35:21;;;;;;;;;;;16.20;99.90;;;;;;5054151;28;19951;-74
2022/07/08 03:37:47;;;;;;;;;;;16.20;99.90;;;;;;5071089;28;19908;-75
2022/07/08 03:42:58;;;;;;;;;;;16.20;99.90;;;;;;5071714;28;19970;-75
2022/07/08 03:45:23;;;;;;;;;;;16.10;99.90;;;;;;5071993;28;19904;-75
2022/07/08 03:47:49;;;;;;;;;;;16.10;99.90;;;;;;5071633;28;19905;-75
2022/07/08 03:50:15;;;;;;;;;;;16.00;99.90;;;;;;5072154;28;19904;-75
2022/07/08 03:52:40;;;;;;;;;;;16.00;99.90;;;;;;5071270;28;20441;-75
2022/07/08 03:55:06;;;;;;;;;;;16.00;99.90;;;;;;5072155;28;19908;-75
2022/07/08 03:57:32;;;;;;;;;;;15.90;99.90;;;;;;5072824;28;20275;-75
2022/07/08 03:59:58;;;;;;;;;;;15.90;99.90;;;;;;5075234;28;19904;-75
2022/07/08 04:02:24;;;;;;;;;;;15.80;99.90;;;;;;5075222;28;20015;-75
2022/07/08 04:04:50;;;;;;;;;;;15.80;99.90;;;;;;5075391;28;20057;-75
2022/07/08 04:07:16;;;;;;;;;;;15.80;99.90;;;;;;5075431;28;19905;-75
2022/07/08 04:09:41;;;;;;;;;;;15.80;99.90;;;;;;5074737;28;19905;-75
2022/07/08 04:12:07;;;;;;;;;;;15.80;99.90;;;;;;5075036;28;19908;-75
2022/07/08 04:14:33;;;;;;;;;;;15.80;99.90;;;;;;5056474;28;19915;-75
2022/07/08 04:16:58;;;;;;;;;;;15.80;99.90;;;;;;5075552;28;19920;-75
2022/07/08 04:19:24;;;;;;;;;;;15.70;99.90;;;;;;5075290;28;20275;-75
2022/07/08 04:21:50;;;;;;;;;;;15.70;99.90;;;;;;5074442;28;19904;-75
2022/07/08 04:24:15;;;;;;;;;;;15.70;99.90;;;;;;5075140;28;19904;-75
2022/07/08 04:26:41;;;;;;;;;;;15.70;99.90;;;;;;5074222;28;19958;-75
2022/07/08 04:29:06;;;;;;;;;;;15.70;99.90;;;;;;5075035;28;19957;-75
2022/07/08 04:31:32;;;;;;;;;;;15.80;99.90;;;;;;5074285;28;19904;-75
2022/07/08 04:33:57;;;;;;;;;;;15.60;99.90;;;;;;5074600;28;20275;-75
2022/07/08 04:36:23;;;;;;;;;;;15.50;99.90;;;;;;5074784;28;19998;-74
2022/07/08 04:38:49;;;;;;;;;;;15.50;99.90;;;;;;5074339;28;20015;-75
2022/07/08 04:41:15;;;;;;;;;;;15.50;99.90;;;;;;5074663;28;19904;-75
2022/07/08 04:43:41;;;;;;;;;;;15.50;99.90;;;;;;5073863;28;20339;-74
2022/07/08 04:46:06;;;;;;;;;;;15.60;99.90;;;;;;5074769;28;19927;-74
2022/07/08 04:48:32;;;;;;;;;;;15.60;99.90;;;;;;5073708;28;20359;-75
2022/07/08 04:50:58;;;;;;;;;;;15.60;99.90;;;;;;5075067;28;19905;-74
2022/07/08 04:53:23;;;;;;;;;;;15.60;99.90;;;;;;5074410;28;19904;-75
2022/07/08 04:55:49;;;;;;;;;;;15.60;99.90;;;;;;5073874;28;19911;-75
2022/07/08 04:58:15;;;;;;;;;;;15.50;99.90;;;;;;5074339;28;19931;-75
2022/07/08 05:00:41;;;;;;;;;;;15.50;99.90;;;;;;5073641;28;19908;-75
2022/07/08 05:03:06;;;;;;;;;;;15.50;99.90;;;;;;5074006;28;19957;-75
2022/07/08 05:05:33;;;;;;;;;;;15.50;99.90;;;;;;5073538;28;19965;-75
2022/07/08 05:07:59;;;;;;;;;;;15.60;99.90;;;;;;5074116;28;19950;-75
2022/07/08 05:10:25;;;;;;;;;;;15.60;99.90;;;;;;5073295;28;19905;-75
2022/07/08 05:12:51;;;;;;;;;;;15.60;99.90;;;;;;5072937;28;19908;-75
2022/07/08 05:15:17;;;;;;;;;;;15.60;99.90;;;;;;5073424;28;19962;-75
2022/07/08 05:17:43;;;;;;;;;;;15.60;99.90;;;;;;5073384;28;19951;-76
2022/07/08 05:20:09;;;;;;;;;;;15.60;99.90;;;;;;5073826;28;19911;-75
2022/07/08 05:22:35;;;;;;;;;;;15.60;99.90;;;;;;5073034;28;19915;-75
2022/07/08 05:25:01;;;;;;;;;;;15.60;99.90;;;;;;5073761;28;19908;-75
2022/07/08 05:27:27;;;;;;;;;;;15.60;99.90;;;;;;5055844;28;20328;-75
2022/07/08 05:29:53;;;;;;;;;;;15.70;99.90;;;;;;5073146;28;20014;-75
2022/07/08 05:32:18;;;;;;;;;;;15.60;99.90;;;;;;5073563;28;19905;-75
2022/07/08 05:34:44;;;;;;;;;;;15.70;99.90;;;;;;5073476;28;19908;-75
2022/07/08 05:37:12;;;;;;;;;;;15.70;99.90;;;;;;5073797;28;19948;-75
2022/07/08 05:39:39;;;;;;;;;;;15.70;99.90;;;;;;5073039;28;19904;-75
2022/07/08 05:42:06;;;;;;;;;;;15.70;99.90;;;;;;5073196;28;20408;-74
2022/07/08 05:44:31;;;;;;;;;;;15.70;99.90;;;;;;5073372;28;20428;-75
2022/07/08 05:46:57;;;;;;;;;;;15.70;99.90;;;;;;5073239;28;19904;-75
2022/07/08 05:49:23;;;;;;;;;;;15.70;99.90;;;;;;5073526;28;20044;-75
2022/07/08 05:51:48;;;;;;;;;;;15.70;99.90;;;;;;5072655;28;19995;-75
2022/07/08 05:54:14;;;;;;;;;;;15.70;99.90;;;;;;5073513;28;19911;-75
2022/07/08 05:56:39;;;;;;;;;;;15.60;99.90;;;;;;5072780;28;19912;-75
2022/07/08 05:59:05;;;;;;;;;;;15.60;99.90;;;;;;5073411;28;19912;-75
2022/07/08 06:01:31;;;;;;;;;;;15.60;99.90;;;;;;5073271;28;20389;-75
2022/07/08 06:03:56;;;;;;;;;;;15.60;99.90;;;;;;5072659;28;19911;-75
2022/07/08 06:06:22;;;;;;;;;;;15.70;99.90;;;;;;5073518;28;19904;-75
2022/07/08 06:08:48;;;;;;;;;;;15.70;99.90;;;;;;5054610;28;19912;-75
2022/07/08 06:11:14;;;;;;;;;;;15.70;99.90;;;;;;5072902;28;19990;-75
2022/07/08 06:13:40;;;;;;;;;;;15.70;99.90;;;;;;5072246;28;20449;-75
2022/07/08 06:16:06;;;;;;;;;;;15.70;99.90;;;;;;5072974;28;19932;-75
2022/07/08 06:18:31;;;;;;;;;;;15.70;99.90;;;;;;5072433;28;19916;-75
2022/07/08 06:20:57;;;;;;;;;;;15.70;99.90;;;;;;5070877;28;20367;-75
2022/07/08 06:23:22;;;;;;;;;;;15.70;99.90;;;;;;5072469;28;19904;-74
2022/07/08 06:25:48;;;;;;;;;;;15.70;99.90;;;;;;5072176;28;19905;-75
2022/07/08 06:28:14;;;;;;;;;;;15.70;99.90;;;;;;5072881;28;20412;-75
2022/07/08 06:30:39;;;;;;;;;;;15.70;99.90;;;;;;5072234;28;19905;-75
2022/07/08 06:33:05;;;;;;;;;;;15.70;99.90;;;;;;5072478;28;19962;-75
2022/07/08 06:35:32;;;;;;;;;;;15.70;99.90;;;;;;5072403;28;19912;-75
2022/07/08 06:37:57;;;;;;;;;;;15.80;99.90;;;;;;5071965;28;19948;-75
2022/07/08 06:40:23;;;;;;;;;;;15.90;99.90;;;;;;5072599;28;19912;-75
2022/07/08 06:42:49;;;;;;;;;;;15.90;99.90;;;;;;5071644;28;19923;-75
2022/07/08 06:45:14;;;;;;;;;;;16.00;99.90;;;;;;5072384;28;20342;-75
2022/07/08 06:47:40;;;;;;;;;;;16.00;99.90;;;;;;5071800;28;19950;-75
2022/07/08 06:50:06;;;;;;;;;;;16.10;99.90;;;;;;5072047;28;19950;-75
2022/07/08 06:52:32;;;;;;;;;;;16.00;99.90;;;;;;5072583;28;20392;-75
2022/07/08 06:54:59;;;;;;;;;;;15.90;99.90;;;;;;5053829;28;19908;-74
2022/07/08 06:57:25;;;;;;;;;;;15.90;99.90;;;;;;5054385;28;19944;-75
2022/07/08 06:59:51;;;;;;;;;;;15.90;99.90;;;;;;5071606;28;19953;-74
2022/07/08 07:02:16;;;;;;;;;;;16.00;99.90;;;;;;5072371;28;19904;-75
2022/07/08 07:04:42;;;;;;;;;;;15.90;99.90;;;;;;5071550;28;19912;-75
2022/07/08 07:07:08;;;;;;;;;;;15.90;99.90;;;;;;5072080;28;19912;-75
2022/07/08 07:09:33;;;;;;;;;;;15.80;99.90;;;;;;5072179;28;19904;-75
2022/07/08 07:11:59;;;;;;;;;;;15.90;99.90;;;;;;5071316;28;19912;-75
2022/07/08 07:14:25;;;;;;;;;;;15.90;99.90;;;;;;5072217;28;19912;-75
2022/07/08 07:16:50;;;;;;;;;;;15.90;99.90;;;;;;5071589;28;20420;-75
2022/07/08 07:19:16;;;;;;;;;;;16.00;99.90;;;;;;5072093;28;19909;-75
2022/07/08 07:21:41;;;;;;;;;;;16.00;99.90;;;;;;5071576;28;19999;-76
2022/07/08 07:24:07;;;;;;;;;;;16.00;99.90;;;;;;5071944;28;19905;-74
2022/07/08 07:26:33;;;;;;;;;;;16.10;99.90;;;;;;5072156;28;19911;-75
2022/07/08 07:28:58;;;;;;;;;;;16.20;99.90;;;;;;5071417;28;19914;-75
2022/07/08 07:31:24;;;;;;;;;;;16.30;99.90;;;;;;5072125;28;19958;-74
2022/07/08 07:33:49;;;;;;;;;;;16.30;99.90;;;;;;5074841;28;20355;-75
2022/07/08 07:36:15;;;;;;;;;;;16.30;99.90;;;;;;5075336;28;19908;-75
2022/07/08 07:38:41;;;;;;;;;;;16.40;99.90;;;;;;5075102;28;20416;-75
2022/07/08 07:41:06;;;;;;;;;;;16.40;99.90;;;;;;5075331;28;19904;-75
2022/07/08 07:43:32;;;;;;;;;;;16.40;99.90;;;;;;5075244;28;20345;-75
2022/07/08 07:45:57;;;;;;;;;;;16.40;99.90;;;;;;5074570;28;19905;-75
2022/07/08 07:48:23;;;;;;;;;;;16.50;99.90;;;;;;5075570;28;19910;-75
2022/07/08 07:50:48;;;;;;;;;;;16.50;99.90;;;;;;5074786;28;19958;-75
2022/07/08 07:53:14;;;;;;;;;;;16.60;99.90;;;;;;5075631;28;19904;-75
2022/07/08 07:55:40;;;;;;;;;;;16.60;99.90;;;;;;5075459;28;19908;-75
2022/07/08 07:58:05;;;;;;;;;;;16.70;99.90;;;;;;5074712;28;20424;-75
2022/07/08 08:00:31;;;;;;;;;;;16.80;99.90;;;;;;5075588;28;19915;-76
2022/07/08 08:02:56;;;;;;;;;;;16.90;99.90;;;;;;5074492;28;19904;-75
2022/07/08 08:05:22;;;;;;;;;;;16.90;99.90;;;;;;5075444;28;19905;-75
2022/07/08 08:07:47;;;;;;;;;;;17.00;99.90;;;;;;5074479;28;19904;-75
2022/07/08 08:10:14;;;;;;;;;;;17.00;99.90;;;;;;5075138;28;20259;-75
2022/07/08 08:12:40;;;;;;;;;;;17.00;99.90;;;;;;5075224;28;19904;-75
2022/07/08 08:15:06;;;;;;;;;;;17.10;99.90;;;;;;5074829;28;19958;-74
2022/07/08 08:17:36;;;;;;;;;;;17.20;99.90;;;;;;5075175;28;19998;-75
2022/07/08 08:20:02;;;;;;;;;;;17.20;99.90;;;;;;5074595;28;19952;-75
2022/07/08 08:22:28;;;;;;;;;;;17.30;99.90;;;;;;5075360;28;19911;-74
2022/07/08 08:24:53;;;;;;;;;;;17.40;99.90;;;;;;5074522;28;19909;-74
2022/07/08 08:27:19;;;;;;;;;;;17.50;99.90;;;;;;5075175;28;20428;-74
2022/07/08 08:29:44;;;;;;;;;;;17.50;99.90;;;;;;5074555;28;19927;-74
2022/07/08 08:32:10;;;;;;;;;;;17.60;99.90;;;;;;5056837;28;20351;-75
2022/07/08 08:34:35;;;;;;;;;;;17.70;99.90;;;;;;5074764;28;19913;-74
2022/07/08 08:37:01;;;;;;;;;;;17.70;99.90;;;;;;5074006;28;19919;-74
2022/07/08 08:39:27;;;;;;;;;;;17.90;99.90;;;;;;5074830;28;19909;-74
2022/07/08 08:41:53;;;;;;;;;;;18.00;99.90;;;;;;5073948;28;19971;-74
2022/07/08 08:44:18;;;;;;;;;;;18.00;99.90;;;;;;5073263;28;20369;-74
2022/07/08 08:46:44;;;;;;;;;;;18.30;99.90;;;;;;5074442;28;19951;-75
2022/07/08 08:49:10;;;;;;;;;;;18.50;99.90;;;;;;5074670;28;19950;-74
2022/07/08 08:51:37;;;;;;;;;;;18.60;99.90;;;;;;5074614;28;19904;-74
2022/07/08 08:54:03;;;;;;;;;;;18.80;99.90;;;;;;5073696;28;19904;-74
2022/07/08 08:56:28;;;;;;;;;;;18.70;99.90;;;;;;5074471;28;19964;-74
2022/07/08 08:58:54;;;;;;;;;;;18.60;99.90;;;;;;5073609;28;19936;-74
2022/07/08 09:01:21;;;;;;;;;;;18.60;99.90;;;;;;5074549;28;19905;-74
2022/07/08 09:03:47;;;;;;;;;;;18.60;99.90;;;;;;5073730;28;19905;-74
2022/07/08 09:06:13;;;;;;;;;;;18.70;99.90;;;;;;5074490;28;19912;-74
2022/07/08 09:08:39;;;;;;;;;;;18.70;99.90;;;;;;5074250;28;19905;-74
2022/07/08 09:11:05;;;;;;;;;;;18.70;99.90;;;;;;5073656;28;19908;-74
2022/07/08 09:13:31;;;;;;;;;;;18.60;99.90;;;;;;5073754;28;19909;-74
2022/07/08 09:15:58;;;;;;;;;;;18.60;99.90;;;;;;5073096;28;19916;-74
2022/07/08 09:18:31;;;;;;;;;;;18.60;99.90;;;;;;5074082;28;19909;-74
2022/07/08 09:20:58;;;;;;;;;;;18.60;99.90;;;;;;5073233;28;19911;-74
2022/07/08 09:23:26;;;;;;;;;;;18.60;99.90;;;;;;5073798;28;19911;-74
2022/07/08 09:25:55;;;;;;;;;;;18.80;99.90;;;;;;5073248;28;19979;-74
2022/07/08 09:28:27;;;;;;;;;;;19.00;99.90;;;;;;5074003;28;19912;-74
2022/07/08 09:30:54;;;;;;;;;;;19.00;99.90;;;;;;5073230;28;19904;-74
2022/07/08 09:33:20;;;;;;;;;;;19.20;99.90;;;;;;5073812;28;20364;-74
2022/07/08 09:35:50;;;;;;;;;;;19.10;99.90;;;;;;5055758;28;20007;-74
2022/07/08 09:38:18;;;;;;;;;;;19.10;99.90;;;;;;5073781;28;19915;-75
2022/07/08 09:40:53;;;;;;;;;;;19.10;99.90;;;;;;5073388;28;20373;-75
2022/07/08 09:43:18;;;;;;;;;;;19.20;99.90;;;;;;5073169;28;20412;-75
2022/07/08 09:45:44;;;;;;;;;;;19.10;99.90;;;;;;5072988;28;19904;-75
2022/07/08 09:48:10;;;;;;;;;;;19.00;99.90;;;;;;5054751;28;19981;-75
2022/07/08 09:50:35;;;;;;;;;;;19.00;99.90;;;;;;5073420;28;19920;-75
2022/07/08 09:53:10;;;;;;;;;;;19.10;99.90;;;;;;5072969;28;20297;-75
2022/07/08 09:55:37;;;;;;;;;;;19.10;99.90;;;;;;5073295;28;19956;-75
2022/07/08 09:58:04;;;;;;;;;;;19.20;99.90;;;;;;5072676;28;19908;-75
2022/07/08 10:00:29;;;;;;;;;;;19.10;99.90;;;;;;5073318;28;20354;-75
2022/07/08 10:02:55;;;;;;;;;;;19.10;99.90;;;;;;5072289;28;19904;-74
2022/07/08 10:05:21;;;;;;;;;;;19.20;99.90;;;;;;5072246;28;19915;-74
2022/07/08 10:07:46;;;;;;;;;;;19.30;99.90;;;;;;5072468;28;20327;-74
2022/07/08 10:10:12;;;;;;;;;;;19.30;99.90;;;;;;5072172;28;19983;-74
2022/07/08 10:12:38;;;;;;;;;;;19.40;99.90;;;;;;5071991;28;19904;-75
2022/07/08 10:15:05;;;;;;;;;;;19.40;99.90;;;;;;5071040;28;19934;-74
2022/07/08 10:17:35;;;;;;;;;;;19.40;99.90;;;;;;5072265;28;19908;-74
2022/07/08 10:20:01;;;;;;;;;;;19.50;99.90;;;;;;5071484;28;19952;-75
2022/07/08 10:22:28;;;;;;;;;;;19.50;99.90;;;;;;5072068;28;19951;-74
2022/07/08 10:24:53;;;;;;;;;;;19.40;99.90;;;;;;5071611;28;19911;-75
2022/07/08 10:27:23;;;;;;;;;;;19.40;99.90;;;;;;5071909;28;19904;-75
2022/07/08 10:29:49;;;;;;;;;;;19.30;99.90;;;;;;5071711;28;19905;-75
2022/07/08 10:32:26;;;;;;;;;;;19.30;99.90;;;;;;5072041;28;19908;-75
2022/07/08 10:35:09;;;;;;;;;;;19.30;99.90;;;;;;5071692;28;19912;-75
2022/07/08 10:37:47;;;;;;;;;;;19.40;99.90;;;;;;5072259;28;19912;-75
2022/07/08 10:40:13;;;;;;;;;;;19.60;99.90;;;;;;5071463;28;20394;-75
2022/07/08 10:42:42;;;;;;;;;;;19.80;99.90;;;;;;5071674;28;20016;-75
2022/07/08 10:45:14;;;;;;;;;;;19.90;99.90;;;;;;5070708;28;19991;-75
2022/07/08 10:47:39;;;;;;;;;;;20.00;99.90;;;;;;5064542;28;19995;-75
2022/07/08 10:50:06;;;;;;;;;;;20.00;99.90;;;;;;5073652;28;20004;-76
2022/07/08 10:52:40;;;;;;;;;;;20.10;99.90;;;;;;5089251;28;20002;-76
2022/07/08 10:55:09;;;;;;;;;;;20.20;99.90;;;;;;5091398;28;19953;-76
2022/07/08 10:57:35;;;;;;;;;;;20.30;99.90;;;;;;5092244;28;19915;-76
2022/07/08 11:00:03;;;;;;;;;;;20.30;99.90;;;;;;5091773;28;19904;-76
2022/07/08 11:02:29;;;;;;;;;;;20.40;99.90;;;;;;5092064;28;19904;-76
2022/07/08 11:04:56;;;;;;;;;;;20.40;99.90;;;;;;5091640;28;19910;-76
2022/07/08 11:09:50;;;;;;;;;;;20.60;99.90;;;;;;5076971;28;19908;-76
2022/07/08 11:12:24;;;;;;;;;;;20.60;99.90;;;;;;5075487;28;20317;-76
2022/07/08 11:14:51;;;;;;;;;;;20.70;99.90;;;;;;5075302;28;19962;-77
2022/07/08 11:17:17;;;;;;;;;;;20.60;99.90;;;;;;5075324;28;19915;-76
2022/07/08 11:19:43;;;;;;;;;;;20.50;99.90;;;;;;5057746;28;19911;-76
2022/07/08 11:22:09;;;;;;;;;;;20.60;99.90;;;;;;5057252;28;20416;-76
2022/07/08 11:24:35;;;;;;;;;;;20.70;99.90;;;;;;5075719;28;19951;-76
2022/07/08 11:27:01;;;;;;;;;;;20.70;99.90;;;;;;5040345;28;19911;-76
2022/07/08 11:29:26;;;;;;;;;;;20.70;99.90;;;;;;5075595;28;19904;-76
2022/07/08 11:31:56;;;;;;;;;;;20.70;99.90;;;;;;5074749;28;20312;-76
2022/07/08 11:34:24;;;;;;;;;;;20.70;99.90;;;;;;5075291;28;20347;-76
2022/07/08 11:36:56;;;;;;;;;;;20.80;99.90;;;;;;5075218;28;19915;-76
2022/07/08 11:39:22;;;;;;;;;;;20.90;99.90;;;;;;5075011;28;19935;-76
2022/07/08 11:41:48;;;;;;;;;;;21.00;99.90;;;;;;5075289;28;20355;-76
2022/07/08 11:44:13;;;;;;;;;;;21.00;99.90;;;;;;5074988;28;19916;-76
2022/07/08 11:46:44;;;;;;;;;;;21.10;99.90;;;;;;5075169;28;19904;-76
2022/07/08 11:49:10;;;;;;;;;;;21.20;99.90;;;;;;5074570;28;19935;-76
2022/07/08 11:51:35;;;;;;;;;;;21.20;99.90;;;;;;5075332;28;20003;-76
2022/07/08 11:54:01;;;;;;;;;;;21.30;99.90;;;;;;5074653;28;19952;-77
2022/07/08 11:56:26;;;;;;;;;;;21.30;99.90;;;;;;5075045;28;19962;-76
2022/07/08 11:58:52;;;;;;;;;;;21.40;99.90;;;;;;5074695;28;19923;-76
2022/07/08 12:01:19;;;;;;;;;;;21.50;99.90;;;;;;5074840;28;19904;-76
2022/07/08 12:03:45;;;;;;;;;;;21.50;99.90;;;;;;5056930;28;19950;-76
2022/07/08 12:06:11;;;;;;;;;;;21.40;99.90;;;;;;5074612;28;19908;-76
2022/07/08 12:08:43;;;;;;;;;;;21.40;99.90;;;;;;5074935;28;19908;-76
2022/07/08 12:11:13;;;;;;;;;;;21.40;99.90;;;;;;5074352;28;19905;-76
2022/07/08 12:13:42;;;;;;;;;;;21.50;99.90;;;;;;5056804;28;20235;-76
2022/07/08 12:16:08;;;;;;;;;;;21.40;99.90;;;;;;5056171;28;20286;-76
2022/07/08 12:18:40;;;;;;;;;;;21.40;99.90;;;;;;5074435;28;19909;-76
2022/07/08 12:21:21;;;;;;;;;;;21.50;99.90;;;;;;5074306;28;19957;-76
2022/07/08 12:23:59;;;;;;;;;;;21.60;99.90;;;;;;5074791;28;19912;-76
2022/07/08 12:26:25;;;;;;;;;;;21.70;99.90;;;;;;5074886;28;20321;-76
2022/07/08 12:28:51;;;;;;;;;;;21.60;99.90;;;;;;5056645;28;19905;-76
2022/07/08 12:31:37;;;;;;;;;;;21.70;99.90;;;;;;5074398;28;20252;-76
2022/07/08 12:34:03;;;;;;;;;;;21.80;99.90;;;;;;5073562;28;20351;-76
2022/07/08 12:36:29;;;;;;;;;;;21.90;99.90;;;;;;5074377;28;19909;-76
2022/07/08 12:38:55;;;;;;;;;;;21.90;99.90;;;;;;5073751;28;19915;-76
2022/07/08 12:41:21;;;;;;;;;;;22.00;99.90;;;;;;5074482;28;19957;-76
2022/07/08 12:43:47;;;;;;;;;;;22.20;99.90;;;;;;5073671;28;19969;-76
2022/07/08 12:46:13;;;;;;;;;;;22.30;99.90;;;;;;5073226;28;20378;-76
2022/07/08 12:48:39;;;;;;;;;;;22.30;99.90;;;;;;5073461;28;19912;-76
2022/07/08 12:51:07;;;;;;;;;;;22.20;99.90;;;;;;5073862;28;19912;-76
2022/07/08 12:53:32;;;;;;;;;;;22.10;99.90;;;;;;5073941;28;19991;-76
2022/07/08 12:55:58;;;;;;;;;;;22.00;99.90;;;;;;5072779;28;20343;-77
2022/07/08 12:58:26;;;;;;;;;;;22.00;99.90;;;;;;5074443;28;20371;-76
2022/07/08 13:00:52;;;;;;;;;;;22.10;99.90;;;;;;5073988;28;19904;-77
2022/07/08 13:03:18;;;;;;;;;;;22.10;99.90;;;;;;5074779;28;19904;-76
2022/07/08 13:05:43;;;;;;;;;;;21.90;99.90;;;;;;5074622;28;19996;-76
2022/07/08 13:08:09;;;;;;;;;;;21.90;99.90;;;;;;5073909;28;19936;-76
2022/07/08 13:10:35;;;;;;;;;;;21.70;99.90;;;;;;5073502;28;20346;-76
2022/07/08 13:13:06;;;;;;;;;;;21.60;99.90;;;;;;5073368;28;19904;-77
2022/07/08 13:15:35;;;;;;;;;;;21.60;99.90;;;;;;5074068;28;19928;-76
2022/07/08 13:18:00;;;;;;;;;;;21.60;99.90;;;;;;5072986;28;19908;-77
2022/07/08 13:20:26;;;;;;;;;;;21.80;99.90;;;;;;5074230;28;19905;-76
2022/07/08 13:22:51;;;;;;;;;;;22.10;99.90;;;;;;5074149;28;19908;-76
2022/07/08 13:25:17;;;;;;;;;;;22.30;99.90;;;;;;5074110;28;20232;-76
2022/07/08 13:27:44;;;;;;;;;;;22.40;99.90;;;;;;5074050;28;19904;-76
2022/07/08 13:30:13;;;;;;;;;;;22.60;99.90;;;;;;5072819;28;19913;-76
2022/07/08 13:32:39;;;;;;;;;;;22.70;99.90;;;;;;5073947;28;19908;-76
2022/07/08 13:35:04;;;;;;;;;;;22.80;99.90;;;;;;5073567;28;19913;-76
2022/07/08 13:37:30;;;;;;;;;;;22.70;99.90;;;;;;5073904;28;19904;-76
2022/07/08 13:39:56;;;;;;;;;;;22.80;99.90;;;;;;5055305;28;19995;-76
2022/07/08 13:42:21;;;;;;;;;;;23.00;99.90;;;;;;5073483;28;20313;-76
2022/07/08 13:44:47;;;;;;;;;;;23.10;99.90;;;;;;5073811;28;20359;-76
2022/07/08 13:47:13;;;;;;;;;;;23.00;99.90;;;;;;5073126;28;20355;-76
2022/07/08 13:49:38;;;;;;;;;;;23.10;99.90;;;;;;5073646;28;19904;-76
2022/07/08 13:52:04;;;;;;;;;;;23.20;99.90;;;;;;5073026;28;19939;-76
2022/07/08 13:54:30;;;;;;;;;;;23.20;99.90;;;;;;5073776;28;19911;-76
2022/07/08 13:56:55;;;;;;;;;;;23.30;99.90;;;;;;5073116;28;19927;-77
2022/07/08 13:59:21;;;;;;;;;;;23.30;99.90;;;;;;5073403;28;19928;-74
2022/07/08 14:01:46;;;;;;;;;;;23.30;99.90;;;;;;5073337;28;19905;-76
2022/07/08 14:04:14;;;;;;;;;;;23.20;99.90;;;;;;5072733;28;19990;-75
2022/07/08 14:06:40;;;;;;;;;;;23.20;99.90;;;;;;5073247;28;19904;-75
2022/07/08 14:09:06;;;;;;;;;;;23.10;99.90;;;;;;5072712;28;19909;-74
2022/07/08 14:11:31;;;;;;;;;;;23.00;99.90;;;;;;5073033;28;20347;-74
2022/07/08 14:13:57;;;;;;;;;;;22.90;99.90;;;;;;5072780;28;20366;-74
2022/07/08 14:16:22;;;;;;;;;;;22.80;99.90;;;;;;5073199;28;19919;-75